createdAt,value
2018-07-11T00:00:30.217Z,8.00
2018-07-11T00:03:01.849Z,8.33
2018-07-11T00:05:32.512Z,7.90
2018-07-11T00:08:04.559Z,7.67
2018-07-11T00:10:36.842Z,8.03
2018-07-11T00:13:08.956Z,9.30
2018-07-11T00:15:41.250Z,9.10
2018-07-11T00:18:11.939Z,9.35
2018-07-11T00:20:43.249Z,8.88
2018-07-11T00:23:13.225Z,10.00
2018-07-11T00:25:45.718Z,8.93
2018-07-11T00:28:17.373Z,9.00
2018-07-11T00:30:48.359Z,9.80
2018-07-11T00:33:20.253Z,8.80
2018-07-11T00:35:51.083Z,8.95
2018-07-11T00:38:22.163Z,9.23
2018-07-11T00:40:53.260Z,9.20
2018-07-11T00:43:23.922Z,8.90
2018-07-11T00:45:54.640Z,8.38
2018-07-11T00:48:25.954Z,9.63
2018-07-11T00:50:56.079Z,9.70
2018-07-11T00:53:27.173Z,8.68
2018-07-11T00:55:59.074Z,9.40
2018-07-11T00:58:34.603Z,9.33
2018-07-11T01:01:11.761Z,8.40
2018-07-11T01:03:42.682Z,9.38
2018-07-11T01:06:13.204Z,9.68
2018-07-11T01:08:44.196Z,12.37
2018-07-11T01:11:20.043Z,13.60
2018-07-11T01:13:50.030Z,15.15
2018-07-11T01:16:20.441Z,12.50
2018-07-11T01:19:01.163Z,14.30
2018-07-11T01:21:32.163Z,11.75
2018-07-11T01:24:02.636Z,19.82
2018-07-11T01:26:33.852Z,20.92
2018-07-11T01:29:03.867Z,19.32
2018-07-11T01:31:33.575Z,14.80
2018-07-11T01:34:04.134Z,12.37
2018-07-11T01:36:33.859Z,9.63
2018-07-11T01:39:07.922Z,9.18
2018-07-11T01:41:37.543Z,8.05
2018-07-11T01:44:07.304Z,10.35
2018-07-11T01:46:45.535Z,10.10
2018-07-11T01:49:16.993Z,11.70
2018-07-11T01:51:59.458Z,11.73
2018-07-11T01:54:30.480Z,12.40
2018-07-11T01:57:01.799Z,12.28
2018-07-11T01:59:35.329Z,13.20
2018-07-11T02:02:07.627Z,13.32
2018-07-11T02:04:38.452Z,13.13
2018-07-11T02:07:14.238Z,14.15
2018-07-11T02:09:45.054Z,14.23
2018-07-11T02:12:16.364Z,12.45
2018-07-11T02:14:52.884Z,12.25
2018-07-11T02:17:23.891Z,11.68
2018-07-11T02:19:53.628Z,10.40
2018-07-11T02:22:24.522Z,10.60
2018-07-11T02:24:57.050Z,10.20
2018-07-11T02:27:29.008Z,11.73
2018-07-11T02:30:00.356Z,13.03
2018-07-11T02:32:33.102Z,12.95
2018-07-11T02:35:05.104Z,13.18
2018-07-11T02:37:37.600Z,13.28
2018-07-11T02:40:07.310Z,12.63
2018-07-11T02:42:39.539Z,13.80
2018-07-11T02:45:09.829Z,13.10
2018-07-11T02:47:43.948Z,15.83
2018-07-11T02:50:15.310Z,13.95
2018-07-11T02:52:45.794Z,14.78
2018-07-11T02:55:16.104Z,15.45
2018-07-11T02:57:46.747Z,16.25
2018-07-11T03:00:17.325Z,16.27
2018-07-11T03:02:47.719Z,16.77
2018-07-11T03:05:18.504Z,16.37
2018-07-11T03:07:49.475Z,16.48
2018-07-11T03:10:19.144Z,14.68
2018-07-11T03:12:51.028Z,16.52
2018-07-11T03:15:22.210Z,15.88
2018-07-11T03:17:52.265Z,17.25
2018-07-11T03:20:23.122Z,17.95
2018-07-11T03:22:54.439Z,16.77
2018-07-11T03:25:24.841Z,19.67
2018-07-11T03:27:55.885Z,18.25
2018-07-11T03:30:25.864Z,20.10
2018-07-11T03:32:55.760Z,19.98
2018-07-11T03:35:26.439Z,19.17
2018-07-11T03:37:57.520Z,18.55
2018-07-11T03:40:27.448Z,22.17
2018-07-11T03:42:59.236Z,21.15
2018-07-11T03:45:30.279Z,21.93
2018-07-11T03:48:00.994Z,21.77
2018-07-11T03:50:32.981Z,23.83
2018-07-11T03:53:04.369Z,22.32
2018-07-11T03:55:36.994Z,24.75
2018-07-11T03:58:09.361Z,25.62
2018-07-11T04:00:41.047Z,25.85
2018-07-11T04:03:12.039Z,25.65
2018-07-11T04:05:41.704Z,28.02
2018-07-11T04:08:12.744Z,28.45
2018-07-11T04:10:43.297Z,29.12
2018-07-11T04:13:19.403Z,30.10
2018-07-11T04:15:50.125Z,29.72
2018-07-11T04:18:35.893Z,31.82
2018-07-11T04:21:06.322Z,31.65
2018-07-11T04:23:37.643Z,32.88
2018-07-11T04:26:08.327Z,33.92
2018-07-11T04:28:39.860Z,34.40
2018-07-11T04:31:10.803Z,32.80
2018-07-11T04:33:42.160Z,32.03
2018-07-11T04:36:12.653Z,30.80
2018-07-11T04:38:44.885Z,28.23
2018-07-11T04:41:16.565Z,27.58
2018-07-11T04:43:48.241Z,26.00
2018-07-11T04:46:18.184Z,27.98
2018-07-11T04:48:48.374Z,27.98
2018-07-11T04:51:18.349Z,27.40
2018-07-11T04:53:51.817Z,28.42
2018-07-11T04:56:21.387Z,29.95
2018-07-11T04:58:51.951Z,30.48
2018-07-11T05:01:23.537Z,28.87
2018-07-11T05:03:53.546Z,29.25
2018-07-11T05:06:23.622Z,29.90
2018-07-11T05:08:53.754Z,29.48
2018-07-11T05:11:24.155Z,30.50
2018-07-11T05:13:54.499Z,30.35
2018-07-11T05:16:25.318Z,27.77
2018-07-11T05:18:56.457Z,25.00
2018-07-11T05:21:27.810Z,24.65
2018-07-11T05:23:58.345Z,22.60
2018-07-11T05:26:30.562Z,22.07
2018-07-11T05:29:01.843Z,22.52
2018-07-11T05:31:33.294Z,23.52
2018-07-11T05:34:03.271Z,26.20
2018-07-11T05:36:33.957Z,24.85
2018-07-11T05:39:04.654Z,25.32
2018-07-11T05:41:35.399Z,25.50
2018-07-11T05:44:07.212Z,25.40
2018-07-11T05:46:38.468Z,25.00
2018-07-11T05:49:09.482Z,25.68
2018-07-11T05:51:40.060Z,26.12
2018-07-11T05:54:09.877Z,25.52
2018-07-11T05:56:39.384Z,22.80
2018-07-11T05:59:11.123Z,23.25
2018-07-11T06:01:41.551Z,22.13
2018-07-11T06:04:11.034Z,22.45
2018-07-11T06:06:42.405Z,21.55
2018-07-11T06:09:12.703Z,20.15
2018-07-11T06:11:43.074Z,21.35
2018-07-11T06:14:14.762Z,19.65
2018-07-11T06:16:45.741Z,18.77
2018-07-11T06:19:15.664Z,19.37
2018-07-11T06:21:50.808Z,17.57
2018-07-11T06:24:21.846Z,17.65
2018-07-11T06:26:52.628Z,18.02
2018-07-11T06:29:23.290Z,19.77
2018-07-11T06:31:55.582Z,18.77
2018-07-11T06:34:25.564Z,18.27
2018-07-11T06:36:56.045Z,18.07
2018-07-11T06:39:27.085Z,17.23
2018-07-11T06:41:59.708Z,18.57
2018-07-11T06:44:29.782Z,17.65
2018-07-11T06:47:04.498Z,18.55
2018-07-11T06:49:35.845Z,17.60
2018-07-11T06:52:05.982Z,18.32
2018-07-11T06:54:36.494Z,16.85
2018-07-11T06:57:07.242Z,18.77
2018-07-11T06:59:38.888Z,20.97
2018-07-11T07:02:08.907Z,20.62
2018-07-11T07:04:40.355Z,19.95
2018-07-11T07:07:12.142Z,20.77
2018-07-11T07:09:43.080Z,20.08
2018-07-11T07:12:15.374Z,20.97
2018-07-11T07:14:45.792Z,19.92
2018-07-11T07:17:16.104Z,19.23
2018-07-11T07:19:46.233Z,18.32
2018-07-11T07:22:17.496Z,18.27
2018-07-11T07:24:48.871Z,17.30
2018-07-11T07:27:20.039Z,17.55
2018-07-11T07:29:50.310Z,16.93
2018-07-11T07:32:21.524Z,15.58
2018-07-11T07:34:51.949Z,14.68
2018-07-11T07:37:22.963Z,14.55
2018-07-11T07:39:54.647Z,14.15
2018-07-11T07:42:25.290Z,14.30
2018-07-11T07:44:56.679Z,13.48
2018-07-11T07:47:33.242Z,12.85
2018-07-11T07:50:05.231Z,12.33
2018-07-11T07:52:37.077Z,12.58
2018-07-11T07:55:08.938Z,12.30
2018-07-11T07:57:40.193Z,12.20
2018-07-11T08:00:10.321Z,12.80
2018-07-11T08:02:42.275Z,13.80
2018-07-11T08:05:13.364Z,13.10
2018-07-11T08:07:45.107Z,13.08
2018-07-11T08:10:16.433Z,12.43
2018-07-11T08:12:47.075Z,12.05
2018-07-11T08:15:18.171Z,12.37
2018-07-11T08:17:48.243Z,11.68
2018-07-11T08:20:19.631Z,11.83
2018-07-11T08:23:22.382Z,11.12
2018-07-11T08:26:04.567Z,13.15
2018-07-11T08:30:46.850Z,13.18
2018-07-11T08:36:35.577Z,12.50
2018-07-11T08:39:10.847Z,13.90
2018-07-11T08:43:56.561Z,15.23
2018-07-11T08:46:38.851Z,14.30
2018-07-11T08:51:28.131Z,14.43
2018-07-11T08:54:03.205Z,14.35
2018-07-11T08:57:07.609Z,14.60
2018-07-11T08:59:44.976Z,14.75
2018-07-11T09:04:24.741Z,14.85
2018-07-11T09:09:13.313Z,14.47
2018-07-11T09:11:51.198Z,13.58
2018-07-11T09:14:55.829Z,13.75
2018-07-11T09:18:32.383Z,14.98
2018-07-11T09:22:13.086Z,13.72
2018-07-11T09:24:46.865Z,13.62
2018-07-11T09:27:17.802Z,15.10
2018-07-11T09:29:48.860Z,13.55
2018-07-11T09:32:20.015Z,14.50
2018-07-11T09:34:50.004Z,14.40
2018-07-11T09:37:20.408Z,13.95
2018-07-11T09:39:52.850Z,13.32
2018-07-11T09:42:24.050Z,14.93
2018-07-11T09:44:54.789Z,14.35
2018-07-11T09:47:29.332Z,14.00
2018-07-11T09:49:59.119Z,14.98
2018-07-11T09:52:29.533Z,11.78
2018-07-11T09:54:59.263Z,12.58
2018-07-11T09:57:30.615Z,12.35
2018-07-11T10:00:00.988Z,11.80
2018-07-11T10:02:33.020Z,10.82
2018-07-11T10:05:04.714Z,12.70
2018-07-11T10:07:36.691Z,11.70
2018-07-11T10:10:08.701Z,10.98
2018-07-11T10:12:40.687Z,11.60
2018-07-11T10:15:11.764Z,11.00
2018-07-11T10:17:43.549Z,10.15
2018-07-11T10:20:14.807Z,11.45
2018-07-11T10:22:46.754Z,11.57
2018-07-11T10:25:18.477Z,11.40
2018-07-11T10:27:54.170Z,11.88
2018-07-11T10:30:23.980Z,12.20
2018-07-11T10:32:53.387Z,12.70
2018-07-11T10:35:24.564Z,13.25
2018-07-11T10:37:55.248Z,14.70
2018-07-11T10:40:27.309Z,13.43
2018-07-11T10:42:57.960Z,13.38
2018-07-11T10:45:27.644Z,11.12
2018-07-11T10:47:58.401Z,11.95
2018-07-11T10:50:29.193Z,10.85
2018-07-11T10:52:59.152Z,10.28
2018-07-11T10:55:32.643Z,11.35
2018-07-11T10:58:04.011Z,10.20
2018-07-11T11:00:37.197Z,9.45
2018-07-11T11:03:05.321Z,9.83
2018-07-11T11:05:36.087Z,9.90
2018-07-11T11:08:08.123Z,9.23
2018-07-11T11:10:38.811Z,10.13
2018-07-11T11:13:10.871Z,9.40
2018-07-11T11:15:40.330Z,9.20
2018-07-11T11:18:10.548Z,10.55
2018-07-11T11:20:41.962Z,10.70
2018-07-11T11:23:11.588Z,10.28
2018-07-11T11:25:42.061Z,9.63
2018-07-11T11:28:11.666Z,10.30
2018-07-11T11:30:42.057Z,10.63
2018-07-11T11:33:12.278Z,10.48
2018-07-11T11:35:42.493Z,12.18
2018-07-11T11:38:14.483Z,10.85
2018-07-11T11:40:46.188Z,10.50
2018-07-11T11:43:17.207Z,10.30
2018-07-11T11:45:47.883Z,9.98
2018-07-11T11:48:17.548Z,10.10
2018-07-11T11:50:48.723Z,9.75
2018-07-11T11:53:19.722Z,10.00
2018-07-11T11:55:49.703Z,9.93
2018-07-11T11:58:19.790Z,11.50
2018-07-11T12:00:50.002Z,9.18
2018-07-11T12:03:20.719Z,9.70
2018-07-11T12:05:52.406Z,8.43
2018-07-11T12:08:23.760Z,14.47
2018-07-11T12:10:54.487Z,17.52
2018-07-11T12:13:26.509Z,11.83
2018-07-11T12:15:57.844Z,9.03
2018-07-11T12:18:30.258Z,8.05
2018-07-11T12:21:00.944Z,7.22
2018-07-11T12:23:31.135Z,8.05
2018-07-11T12:26:08.809Z,8.58
2018-07-11T12:28:38.431Z,7.80
2018-07-11T12:31:10.232Z,7.33
2018-07-11T12:33:40.569Z,7.53
2018-07-11T12:36:11.929Z,7.47
2018-07-11T12:38:42.513Z,7.22
2018-07-11T12:41:13.641Z,7.67
2018-07-11T12:43:43.356Z,7.42
2018-07-11T12:46:15.122Z,7.67
2018-07-11T12:48:49.876Z,7.25
2018-07-11T12:51:20.403Z,7.65
2018-07-11T12:53:51.721Z,7.97
2018-07-11T12:56:22.880Z,7.72
2018-07-11T12:58:54.488Z,7.65
2018-07-11T13:01:26.436Z,7.30
2018-07-11T13:03:59.401Z,6.72
2018-07-11T13:06:31.122Z,6.83
2018-07-11T13:09:03.475Z,7.00
2018-07-11T13:11:33.102Z,6.67
2018-07-11T13:14:03.213Z,7.08
2018-07-11T13:16:33.263Z,7.10
2018-07-11T13:19:03.249Z,6.97
2018-07-11T13:21:34.501Z,6.40
2018-07-11T13:24:05.806Z,6.15
2018-07-11T13:26:36.923Z,6.62
2018-07-11T13:29:08.197Z,6.20
2018-07-11T13:31:39.807Z,6.37
2018-07-11T13:34:10.006Z,6.37
2018-07-11T13:36:40.351Z,6.08
2018-07-11T13:39:15.780Z,6.35
2018-07-11T13:41:46.832Z,6.22
2018-07-11T13:44:17.636Z,6.08
2018-07-11T13:46:50.372Z,6.12
2018-07-11T13:49:22.642Z,7.83
2018-07-11T13:51:54.330Z,6.90
2018-07-11T13:54:25.287Z,9.85
2018-07-11T13:56:57.152Z,8.00
2018-07-11T13:59:28.034Z,6.72
2018-07-11T14:01:58.677Z,7.20
2018-07-11T14:04:31.124Z,6.28
2018-07-11T14:07:03.064Z,5.65
2018-07-11T14:09:34.161Z,5.17
2018-07-11T14:12:04.807Z,5.30
2018-07-11T14:14:37.483Z,5.00
2018-07-11T14:17:09.834Z,4.92
2018-07-11T14:19:40.108Z,4.90
2018-07-11T14:22:09.854Z,4.92
2018-07-11T14:24:39.761Z,5.20
2018-07-11T14:27:10.475Z,5.28
2018-07-11T14:29:41.846Z,5.50
2018-07-11T14:32:13.265Z,6.28
2018-07-11T14:34:44.313Z,6.87
2018-07-11T14:37:14.645Z,6.28
2018-07-11T14:39:45.699Z,6.28
2018-07-11T14:42:15.774Z,6.25
2018-07-11T14:44:46.554Z,6.85
2018-07-11T14:47:22.643Z,6.60
2018-07-11T14:49:54.276Z,7.37
2018-07-11T14:52:24.401Z,6.47
2018-07-11T14:54:55.393Z,6.87
2018-07-11T14:57:26.759Z,6.60
2018-07-11T14:59:57.853Z,6.03
2018-07-11T15:02:28.209Z,5.97
2018-07-11T15:04:58.323Z,5.67
2018-07-11T15:07:28.971Z,6.17
2018-07-11T15:10:00.727Z,5.95
2018-07-11T15:12:32.359Z,6.20
2018-07-11T15:15:03.395Z,7.05
2018-07-11T15:17:36.037Z,7.33
2018-07-11T15:20:06.484Z,7.65
2018-07-11T15:22:37.521Z,9.28
2018-07-11T15:25:08.565Z,8.08
2018-07-11T15:27:40.205Z,8.28
2018-07-11T15:30:11.601Z,9.13
2018-07-11T15:32:41.827Z,8.65
2018-07-11T15:35:11.690Z,8.48
2018-07-11T15:37:42.351Z,9.08
2018-07-11T15:40:13.876Z,7.92
2018-07-11T15:42:46.307Z,8.88
2018-07-11T15:45:16.438Z,9.13
2018-07-11T15:47:50.504Z,8.80
2018-07-11T15:50:21.165Z,9.10
2018-07-11T15:52:53.238Z,8.95
2018-07-11T15:55:25.170Z,9.70
2018-07-11T15:57:55.802Z,9.75
2018-07-11T16:00:32.387Z,10.40
2018-07-11T16:03:07.258Z,10.80
2018-07-11T16:05:44.515Z,10.68
2018-07-11T16:08:21.168Z,11.65
2018-07-11T16:10:54.706Z,11.90
2018-07-11T16:13:27.532Z,11.10
2018-07-11T16:15:59.443Z,11.55
2018-07-11T16:18:30.466Z,10.55
2018-07-11T16:21:01.794Z,11.57
2018-07-11T16:23:32.162Z,9.95
2018-07-11T16:26:04.001Z,8.45
2018-07-11T16:28:34.321Z,7.85
2018-07-11T16:31:05.050Z,5.70
2018-07-11T16:33:36.223Z,6.03
2018-07-11T16:36:06.668Z,6.10
2018-07-11T16:38:38.123Z,6.40
2018-07-11T16:41:09.204Z,7.97
2018-07-11T16:43:41.204Z,8.55
2018-07-11T16:46:13.217Z,8.25
2018-07-11T16:48:44.895Z,7.72
2018-07-11T16:51:16.199Z,7.80
2018-07-11T16:53:45.873Z,7.55
2018-07-11T16:56:15.622Z,7.80
2018-07-11T16:58:49.219Z,7.35
2018-07-11T17:01:20.998Z,8.03
2018-07-11T17:03:53.358Z,7.22
2018-07-11T17:06:23.289Z,7.90
2018-07-11T17:08:55.914Z,8.70
2018-07-11T17:11:30.109Z,8.28
2018-07-11T17:14:05.512Z,8.38
2018-07-11T17:16:41.673Z,8.18
2018-07-11T17:19:17.523Z,8.23
2018-07-11T17:21:51.527Z,7.22
2018-07-11T17:24:24.328Z,8.05
2018-07-11T17:26:58.150Z,7.42
2018-07-11T17:29:32.614Z,8.55
2018-07-11T17:32:08.358Z,8.35
2018-07-11T17:34:41.318Z,9.13
2018-07-11T17:37:13.664Z,8.78
2018-07-11T17:39:56.475Z,8.63
2018-07-11T17:42:29.844Z,9.33
2018-07-11T17:45:10.350Z,9.10
2018-07-11T17:48:46.522Z,8.05
2018-07-11T17:51:23.363Z,7.97
2018-07-11T17:53:59.123Z,8.43
2018-07-11T17:56:32.723Z,7.92
2018-07-11T17:59:02.352Z,8.38
2018-07-11T18:01:42.831Z,8.08
2018-07-11T18:04:17.366Z,8.55
2018-07-11T18:07:25.599Z,8.13
2018-07-11T18:10:02.401Z,7.00
2018-07-11T18:12:47.128Z,7.50
2018-07-11T18:15:38.382Z,7.47
2018-07-11T18:18:22.167Z,7.62
2018-07-11T18:21:04.082Z,7.22
2018-07-11T18:23:39.342Z,7.70
2018-07-11T18:27:21.365Z,8.18
2018-07-11T18:29:52.686Z,7.33
2018-07-11T18:32:40.693Z,8.05
2018-07-11T18:37:29.329Z,8.20
2018-07-11T18:40:04.340Z,9.10
2018-07-11T18:42:38.174Z,8.60
2018-07-11T18:45:43.761Z,8.03
2018-07-11T18:50:24.390Z,7.80
2018-07-11T18:52:59.511Z,8.15
2018-07-11T18:55:41.672Z,9.00
2018-07-11T18:58:17.254Z,9.75
2018-07-11T19:00:56.707Z,9.73
2018-07-11T19:03:32.860Z,8.95
2018-07-11T19:06:34.119Z,8.40
2018-07-11T19:09:08.485Z,8.80
2018-07-11T19:11:54.963Z,8.68
2018-07-11T19:14:41.093Z,8.28
2018-07-11T19:17:20.727Z,8.45
2018-07-11T19:20:10.132Z,9.13
2018-07-11T19:22:46.169Z,9.58
2018-07-11T19:25:21.060Z,9.65
2018-07-11T19:28:01.285Z,10.13
2018-07-11T19:31:09.565Z,10.88
2018-07-11T19:34:22.527Z,9.85
2018-07-11T19:37:04.838Z,9.83
2018-07-11T19:39:47.711Z,11.33
2018-07-11T19:42:19.809Z,11.90
2018-07-11T19:44:55.010Z,10.55
2018-07-11T19:48:28.858Z,12.43
2018-07-11T19:52:15.696Z,12.82
2018-07-11T19:54:52.894Z,12.33
2018-07-11T19:57:24.886Z,13.83
2018-07-11T19:59:56.886Z,12.98
2018-07-11T20:02:31.130Z,12.78
2018-07-11T20:05:02.174Z,12.30
2018-07-11T20:07:32.829Z,12.15
2018-07-11T20:10:02.321Z,13.08
2018-07-11T20:12:32.627Z,13.15
2018-07-11T20:15:06.326Z,11.93
2018-07-11T20:17:36.714Z,11.10
2018-07-11T20:20:08.367Z,11.25
2018-07-11T20:22:39.055Z,10.08
2018-07-11T20:25:11.106Z,9.75
2018-07-11T20:27:42.118Z,9.95
2018-07-11T20:30:12.518Z,11.05
2018-07-11T20:32:43.240Z,10.15
2018-07-11T20:35:15.335Z,12.00
2018-07-11T20:37:49.334Z,10.13
2018-07-11T20:40:20.526Z,10.58
2018-07-11T20:42:52.594Z,10.78
2018-07-11T20:45:23.922Z,11.18
2018-07-11T20:47:55.023Z,11.18
2018-07-11T20:50:24.650Z,11.15
2018-07-11T20:52:56.157Z,9.83
2018-07-11T20:55:26.028Z,10.63
2018-07-11T20:58:59.714Z,9.80
2018-07-11T21:01:34.505Z,9.63
2018-07-11T21:04:16.230Z,8.45
2018-07-11T21:06:54.073Z,9.55
2018-07-11T21:10:01.753Z,8.98
2018-07-11T21:12:50.878Z,8.30
2018-07-11T21:15:45.246Z,8.55
2018-07-11T21:19:22.278Z,8.58
2018-07-11T21:21:52.655Z,9.38
2018-07-11T21:24:24.359Z,9.45
2018-07-11T21:26:54.664Z,9.28
2018-07-11T21:29:26.734Z,10.08
2018-07-11T21:31:57.224Z,8.70
2018-07-11T21:34:27.958Z,8.38
2018-07-11T21:36:58.000Z,9.63
2018-07-11T21:39:29.042Z,9.40
2018-07-11T21:41:59.760Z,8.85
2018-07-11T21:44:30.483Z,9.23
2018-07-11T21:47:01.560Z,9.18
2018-07-11T21:49:33.875Z,10.30
2018-07-11T21:52:04.164Z,10.15
2018-07-11T21:54:33.959Z,9.80
2018-07-11T21:57:04.719Z,10.40
2018-07-11T21:59:36.126Z,10.93
2018-07-11T22:02:06.406Z,10.82
2018-07-11T22:04:37.074Z,12.47
2018-07-11T22:07:08.865Z,13.65
2018-07-11T22:09:40.199Z,14.13
2018-07-11T22:12:10.640Z,15.68
2018-07-11T22:14:43.016Z,15.63
2018-07-11T22:17:23.673Z,16.62
2018-07-11T22:19:52.054Z,16.00
2018-07-11T22:22:21.199Z,17.17
2018-07-11T22:24:49.742Z,18.20
2018-07-11T22:27:18.723Z,17.10
2018-07-11T22:29:47.670Z,17.67
2018-07-11T22:32:16.707Z,16.70
2018-07-11T22:34:45.228Z,15.72
2018-07-11T22:37:13.691Z,17.30
2018-07-11T22:39:42.549Z,15.70
2018-07-11T22:42:11.314Z,16.40
2018-07-11T22:44:39.737Z,15.85
2018-07-11T22:47:09.544Z,17.50
2018-07-11T22:49:41.892Z,17.87
2018-07-11T22:52:10.531Z,16.87
2018-07-11T22:54:39.377Z,16.73
2018-07-11T22:57:08.464Z,18.20
2018-07-11T22:59:37.344Z,16.48
2018-07-11T23:02:06.544Z,18.10
2018-07-11T23:04:35.325Z,16.95
2018-07-11T23:07:03.509Z,18.27
2018-07-11T23:09:32.198Z,18.30
2018-07-11T23:12:02.320Z,20.30
2018-07-11T23:14:32.333Z,18.98
2018-07-11T23:17:01.851Z,19.57
2018-07-11T23:19:31.280Z,19.67
2018-07-11T23:22:00.388Z,19.95
2018-07-11T23:24:28.916Z,20.92
2018-07-11T23:26:57.498Z,19.02
2018-07-11T23:29:26.075Z,20.50
2018-07-11T23:31:54.569Z,20.02
2018-07-11T23:34:22.829Z,20.82
2018-07-11T23:36:52.224Z,19.30
2018-07-11T23:39:21.366Z,19.67
2018-07-11T23:41:49.620Z,20.82
2018-07-11T23:44:18.078Z,21.75
2018-07-11T23:46:46.696Z,19.73
2018-07-11T23:49:15.058Z,19.23
2018-07-11T23:51:43.529Z,18.25
2018-07-11T23:54:12.230Z,19.50
2018-07-11T23:56:41.005Z,18.65
2018-07-11T23:59:09.818Z,19.73
